Time;durP1;ratioP1;P1;durP2;ratioP2;P2;SDS_P1;SDS_P2;PMS_P1;PMS_P2;Temp;Humidity;BMP_temperature;BMP_pressure;BME280_temperature;BME280_humidity;BME280_pressure;Samples;Min_cycle;Max_cycle;Signal;HPM_P1;HPM_P2
2021/05/09 00:00:12;;;;;;;6.35;1.55;;;12.60;59.60;;;;;;5054045;28;20537;-76
2021/05/09 00:02:37;;;;;;;1.17;1.02;;;12.60;60.50;;;;;;5053922;28;20053;-76
2021/05/09 00:05:04;;;;;;;1.75;1.10;;;12.60;59.50;;;;;;5053903;28;20017;-76
2021/05/09 00:07:29;;;;;;;1.77;1.08;;;12.60;59.50;;;;;;5053564;28;20033;-76
2021/05/09 00:09:55;;;;;;;2.17;1.13;;;12.70;59.60;;;;;;5053750;28;20031;-76
2021/05/09 00:12:20;;;;;;;3.17;1.20;;;12.60;59.40;;;;;;5053506;28;20045;-76
2021/05/09 00:14:46;;;;;;;2.47;1.10;;;12.60;59.50;;;;;;5052280;28;20059;-76
2021/05/09 00:17:11;;;;;;;2.83;1.33;;;12.60;59.70;;;;;;5053474;28;20466;-76
2021/05/09 00:19:37;;;;;;;1.73;1.08;;;12.60;59.60;;;;;;5053524;28;20029;-76
2021/05/09 00:22:03;;;;;;;1.85;1.20;;;12.60;59.70;;;;;;5053433;28;20028;-75
2021/05/09 00:24:28;;;;;;;4.03;1.40;;;12.60;59.80;;;;;;5053610;28;20025;-77
2021/05/09 00:26:54;;;;;;;3.38;1.10;;;12.60;60.10;;;;;;5053381;28;20021;-76
2021/05/09 00:29:19;;;;;;;3.70;1.30;;;12.60;60.00;;;;;;5053563;28;20029;-76
2021/05/09 00:31:45;;;;;;;2.58;1.10;;;12.60;59.80;;;;;;5051960;28;20033;-76
2021/05/09 00:34:10;;;;;;;2.80;1.23;;;12.60;59.50;;;;;;5053163;28;20463;-76
2021/05/09 00:36:36;;;;;;;2.95;1.10;;;12.70;59.50;;;;;;5052812;28;20021;-76
2021/05/09 00:39:02;;;;;;;2.80;1.15;;;12.70;59.60;;;;;;5052641;28;20578;-76
2021/05/09 00:41:28;;;;;;;2.90;1.27;;;12.70;59.40;;;;;;5053028;28;20064;-76
2021/05/09 00:43:53;;;;;;;1.98;1.10;;;12.70;59.60;;;;;;5051799;28;20071;-75
2021/05/09 00:46:19;;;;;;;2.38;1.38;;;12.70;59.70;;;;;;5052941;28;20024;-76
2021/05/09 00:48:45;;;;;;;3.15;1.23;;;12.60;60.00;;;;;;5053030;28;20021;-76
2021/05/09 00:51:11;;;;;;;1.95;1.08;;;12.60;60.40;;;;;;5053020;28;20060;-76
2021/05/09 00:53:41;;;;;;;1.55;1.17;;;12.50;60.70;;;;;;5051827;28;20031;-75
2021/05/09 00:56:11;;;;;;;2.47;1.30;;;12.50;61.00;;;;;;5053203;28;20481;-75
2021/05/09 00:58:37;;;;;;;3.53;1.20;;;12.40;61.30;;;;;;5052907;28;20500;-75
2021/05/09 01:01:03;;;;;;;3.88;1.27;;;12.30;61.80;;;;;;5053195;28;20029;-76
2021/05/09 01:03:30;;;;;;;2.35;1.10;;;12.30;61.90;;;;;;5053132;28;20104;-76
2021/05/09 01:05:56;;;;;;;4.88;1.30;;;12.30;62.00;;;;;;5053655;28;20025;-76
2021/05/09 01:08:23;;;;;;;2.35;1.33;;;12.30;62.10;;;;;;5053001;28;20100;-76
2021/05/09 01:10:49;;;;;;;5.07;1.10;;;12.40;61.80;;;;;;5055370;28;20024;-75
2021/05/09 01:13:15;;;;;;;1.90;1.00;;;12.40;61.60;;;;;;5055135;28;20029;-75
2021/05/09 01:15:42;;;;;;;6.53;1.58;;;12.40;62.10;;;;;;5052669;28;20043;-75
2021/05/09 01:18:08;;;;;;;2.90;1.33;;;12.50;61.30;;;;;;5052931;28;20135;-76
2021/05/09 01:20:35;;;;;;;1.45;0.82;;;12.50;61.10;;;;;;5052996;28;20063;-76
2021/05/09 01:23:01;;;;;;;3.58;1.20;;;12.50;61.00;;;;;;5054921;28;20040;-77
2021/05/09 01:25:27;;;;;;;1.95;1.33;;;12.60;61.00;;;;;;5065056;28;20024;-77
2021/05/09 01:27:53;;;;;;;4.60;1.58;;;12.50;60.90;;;;;;5052760;28;20022;-76
2021/05/09 01:30:19;;;;;;;3.88;0.82;;;12.50;60.70;;;;;;5052663;28;20036;-76
2021/05/09 01:32:44;;;;;;;3.45;1.40;;;12.50;60.50;;;;;;5052447;28;20040;-76
2021/05/09 01:35:11;;;;;;;3.40;1.45;;;12.50;60.70;;;;;;5052682;28;20021;-77
2021/05/09 01:37:40;;;;;;;3.60;1.13;;;12.50;60.80;;;;;;5052603;28;20405;-77
2021/05/09 01:40:07;;;;;;;1.50;1.08;;;12.50;60.50;;;;;;5052467;28;20104;-76
2021/05/09 01:42:33;;;;;;;2.40;1.15;;;12.60;60.40;;;;;;5052474;28;20033;-76
2021/05/09 01:44:58;;;;;;;1.15;1.00;;;12.80;60.30;;;;;;5052492;28;20532;-76
2021/05/09 01:47:24;;;;;;;3.35;0.88;;;12.90;60.20;;;;;;5052561;28;20067;-76
2021/05/09 01:49:51;;;;;;;1.38;0.90;;;13.00;59.60;;;;;;5062338;28;20048;-78
2021/05/09 01:52:17;;;;;;;3.65;1.00;;;13.20;58.90;;;;;;5059508;28;20500;-77
2021/05/09 01:54:45;;;;;;;2.17;0.77;;;13.40;57.90;;;;;;5056539;28;20025;-76
2021/05/09 01:57:11;;;;;;;1.88;0.70;;;13.50;57.50;;;;;;5055530;28;20033;-77
2021/05/09 01:59:36;;;;;;;2.83;0.88;;;13.60;56.90;;;;;;5056201;28;20096;-77
2021/05/09 02:02:02;;;;;;;2.20;0.70;;;13.70;55.90;;;;;;5056315;28;20029;-77
2021/05/09 02:04:28;;;;;;;2.15;0.90;;;13.80;55.30;;;;;;5056183;28;20029;-76
2021/05/09 02:06:54;;;;;;;0.98;0.70;;;13.80;54.90;;;;;;5056603;28;20029;-76
2021/05/09 02:09:19;;;;;;;1.17;0.80;;;13.80;54.90;;;;;;5054957;28;20488;-77
2021/05/09 02:11:45;;;;;;;1.30;0.90;;;13.80;54.60;;;;;;5056552;28;20028;-76
2021/05/09 02:14:10;;;;;;;2.13;0.77;;;13.80;54.50;;;;;;5056057;28;20025;-77
2021/05/09 02:16:36;;;;;;;2.30;0.93;;;13.80;54.60;;;;;;5056091;28;20049;-77
2021/05/09 02:19:03;;;;;;;1.02;0.70;;;13.80;54.60;;;;;;5055937;28;20060;-76
2021/05/09 02:21:28;;;;;;;2.28;0.80;;;13.80;54.70;;;;;;5055753;28;20032;-76
2021/05/09 02:23:54;;;;;;;3.13;0.77;;;13.80;54.60;;;;;;5055852;28;20458;-76
2021/05/09 02:26:19;;;;;;;4.30;1.02;;;13.80;54.40;;;;;;5055736;28;20021;-76
2021/05/09 02:28:45;;;;;;;2.33;0.90;;;13.80;54.10;;;;;;5055750;28;20381;-76
2021/05/09 02:31:11;;;;;;;2.15;0.95;;;13.80;53.70;;;;;;5055626;28;20473;-76
2021/05/09 02:33:36;;;;;;;1.48;0.63;;;13.90;53.40;;;;;;5055731;28;20021;-76
2021/05/09 02:36:02;;;;;;;2.25;0.93;;;14.00;53.00;;;;;;5055581;28;20033;-76
2021/05/09 02:38:27;;;;;;;1.60;0.77;;;14.00;52.30;;;;;;5054108;28;20025;-76
2021/05/09 02:40:53;;;;;;;1.45;0.73;;;14.10;52.20;;;;;;5055324;28;20144;-77
2021/05/09 02:43:18;;;;;;;0.88;0.70;;;14.20;51.70;;;;;;5055462;28;20068;-76
2021/05/09 02:45:44;;;;;;;0.85;0.65;;;14.20;51.30;;;;;;5055376;28;20040;-77
2021/05/09 02:48:11;;;;;;;3.38;0.70;;;14.30;51.20;;;;;;5055457;28;20430;-77
2021/05/09 02:50:38;;;;;;;0.90;0.73;;;14.30;51.10;;;;;;5055194;28;20032;-76
2021/05/09 02:53:04;;;;;;;1.10;0.70;;;14.30;51.00;;;;;;5055163;28;20481;-77
2021/05/09 02:55:29;;;;;;;2.45;1.08;;;14.30;51.00;;;;;;5055063;28;20033;-77
2021/05/09 02:57:55;;;;;;;1.52;0.80;;;14.40;50.80;;;;;;5055113;28;20024;-77
2021/05/09 03:00:20;;;;;;;1.67;0.70;;;14.40;50.60;;;;;;5053965;28;20025;-77
2021/05/09 03:02:46;;;;;;;3.08;1.00;;;14.40;50.50;;;;;;5055087;28;20021;-76
2021/05/09 03:05:12;;;;;;;1.63;0.82;;;14.50;50.50;;;;;;5054983;28;20059;-76
2021/05/09 03:07:37;;;;;;;1.85;0.93;;;14.50;50.50;;;;;;5053683;28;20076;-77
2021/05/09 03:10:04;;;;;;;2.55;0.82;;;14.50;50.80;;;;;;5054873;28;20557;-76
2021/05/09 03:12:30;;;;;;;1.00;0.80;;;14.50;50.50;;;;;;5054739;28;20036;-77
2021/05/09 03:14:55;;;;;;;2.58;1.00;;;14.50;50.20;;;;;;5054784;28;20021;-77
2021/05/09 03:17:21;;;;;;;1.80;0.70;;;14.60;50.00;;;;;;5054687;28;20480;-77
2021/05/09 03:19:48;;;;;;;2.15;0.93;;;14.50;49.80;;;;;;5054594;28;20079;-77
2021/05/09 03:22:13;;;;;;;1.40;0.70;;;14.60;49.50;;;;;;5054598;28;20060;-77
2021/05/09 03:24:39;;;;;;;2.20;0.80;;;14.60;49.30;;;;;;5054595;28;20053;-77
2021/05/09 03:27:05;;;;;;;1.63;0.75;;;14.60;49.30;;;;;;5054541;28;20028;-77
2021/05/09 03:29:30;;;;;;;4.88;0.98;;;14.60;50.00;;;;;;5054389;28;20017;-77
2021/05/09 03:31:56;;;;;;;6.05;0.88;;;14.60;49.20;;;;;;5054378;28;20051;-77
2021/05/09 03:34:21;;;;;;;0.82;0.63;;;14.60;49.20;;;;;;5054387;28;20017;-77
2021/05/09 03:36:47;;;;;;;3.53;0.93;;;14.60;48.70;;;;;;5054379;28;20033;-77
2021/05/09 03:39:13;;;;;;;1.38;0.75;;;14.60;48.40;;;;;;5054312;28;20110;-77
2021/05/09 03:41:38;;;;;;;2.30;0.85;;;14.50;48.10;;;;;;5054166;28;20052;-77
2021/05/09 03:44:04;;;;;;;2.13;0.70;;;14.50;47.80;;;;;;5054167;28;20049;-76
2021/05/09 03:46:30;;;;;;;2.60;0.73;;;14.60;47.20;;;;;;5054153;28;20112;-76
2021/05/09 03:48:55;;;;;;;1.05;0.70;;;14.60;46.50;;;;;;5054120;28;20053;-77
2021/05/09 03:51:21;;;;;;;1.00;0.60;;;14.70;46.10;;;;;;5053980;28;20086;-77
2021/05/09 03:53:47;;;;;;;1.50;0.77;;;14.60;45.70;;;;;;5054073;28;20029;-76
2021/05/09 03:56:13;;;;;;;2.60;1.98;;;14.70;45.40;;;;;;5053167;28;20035;-77
2021/05/09 03:58:38;;;;;;;1.92;1.50;;;14.70;44.90;;;;;;5055021;28;20099;-77
2021/05/09 04:01:04;;;;;;;0.75;0.40;;;14.80;44.30;;;;;;5068427;28;20025;-77
2021/05/09 04:03:32;;;;;;;3.33;1.52;;;14.80;43.40;;;;;;5058764;28;20025;-77
2021/05/09 04:05:58;;;;;;;8.52;5.45;;;14.80;43.20;;;;;;5054008;28;20036;-77
2021/05/09 04:08:26;;;;;;;2.20;1.30;;;14.90;42.90;;;;;;5053776;28;20029;-77
2021/05/09 04:10:53;;;;;;;4.15;2.78;;;14.90;42.60;;;;;;5053616;28;20380;-77
2021/05/09 04:13:20;;;;;;;3.65;1.55;;;14.90;42.20;;;;;;5053748;28;20136;-78
2021/05/09 04:15:45;;;;;;;2.95;0.93;;;14.90;42.00;;;;;;5053601;28;20474;-77
2021/05/09 04:18:11;;;;;;;2.80;0.70;;;14.90;42.00;;;;;;5053617;28;20037;-77
2021/05/09 04:20:37;;;;;;;0.47;0.43;;;14.90;42.20;;;;;;5053431;28;20029;-76
2021/05/09 04:23:16;;;;;;;3.70;0.60;;;14.80;42.00;;;;;;5053611;28;20470;-76
2021/05/09 04:25:47;;;;;;;0.95;0.50;;;14.90;42.00;;;;;;5053327;28;20386;-77
2021/05/09 04:28:13;;;;;;;1.52;0.57;;;14.90;41.70;;;;;;5053493;28;20025;-76
2021/05/09 04:30:39;;;;;;;2.50;0.77;;;15.00;41.40;;;;;;5053396;28;20021;-76
2021/05/09 04:33:06;;;;;;;0.82;0.50;;;15.20;41.30;;;;;;5053217;28;20037;-77
2021/05/09 04:35:34;;;;;;;1.77;0.68;;;15.30;41.10;;;;;;5053198;28;20394;-77
2021/05/09 04:38:01;;;;;;;2.72;1.42;;;15.30;41.10;;;;;;5053158;28;20055;-77
2021/05/09 04:40:27;;;;;;;3.17;1.40;;;15.50;40.70;;;;;;5053112;28;20075;-76
2021/05/09 04:42:53;;;;;;;2.63;0.57;;;15.50;40.50;;;;;;5053380;28;20477;-76
2021/05/09 04:45:19;;;;;;;1.60;0.55;;;15.60;40.20;;;;;;5053275;28;20021;-76
2021/05/09 04:47:45;;;;;;;1.80;0.77;;;15.70;40.20;;;;;;5053149;28;20183;-76
2021/05/09 04:50:12;;;;;;;1.52;0.60;;;15.80;40.20;;;;;;5053143;28;20086;-76
2021/05/09 04:52:39;;;;;;;0.80;0.60;;;15.80;39.90;;;;;;5052907;28;20033;-76
2021/05/09 04:55:06;;;;;;;0.80;0.50;;;15.90;39.90;;;;;;5053211;28;20385;-77
2021/05/09 04:57:33;;;;;;;0.93;0.50;;;15.90;40.90;;;;;;5054154;28;20119;-74
2021/05/09 04:59:59;;;;;;;1.40;0.55;;;16.00;40.00;;;;;;5053370;28;20025;-75
2021/05/09 05:02:24;;;;;;;1.50;0.68;;;16.00;40.00;;;;;;5052803;28;20035;-75
2021/05/09 05:04:50;;;;;;;1.42;0.40;;;16.10;40.00;;;;;;5052948;28;20091;-75
2021/05/09 05:07:15;;;;;;;3.17;1.90;;;16.10;40.00;;;;;;5052818;28;20025;-75
2021/05/09 05:09:41;;;;;;;2.75;1.10;;;16.10;40.30;;;;;;5052773;28;20466;-74
2021/05/09 05:12:08;;;;;;;0.90;0.70;;;16.20;40.40;;;;;;5050667;28;20033;-76
2021/05/09 05:14:34;;;;;;;2.95;1.00;;;16.20;40.30;;;;;;5052125;28;20123;-75
2021/05/09 05:17:00;;;;;;;1.20;0.70;;;16.30;41.10;;;;;;5052306;28;20425;-76
2021/05/09 05:19:25;;;;;;;3.30;0.63;;;16.30;40.30;;;;;;5052550;28;20021;-76
2021/05/09 05:21:51;;;;;;;1.02;0.45;;;16.40;40.50;;;;;;5052741;28;20104;-76
2021/05/09 05:24:17;;;;;;;5.38;0.75;;;16.40;40.30;;;;;;5054654;28;20020;-75
2021/05/09 05:26:43;;;;;;;3.53;2.47;;;16.50;39.90;;;;;;5056697;28;20489;-76
2021/05/09 05:29:08;;;;;;;2.72;1.35;;;16.50;39.80;;;;;;5056868;28;20029;-76
2021/05/09 05:31:34;;;;;;;5.30;1.63;;;16.60;39.50;;;;;;5056567;28;20481;-75
2021/05/09 05:34:02;;;;;;;3.03;0.90;;;16.70;39.10;;;;;;5056700;28;20037;-75
2021/05/09 05:36:31;;;;;;;3.72;1.00;;;16.80;38.80;;;;;;5056596;28;20025;-75
2021/05/09 05:38:59;;;;;;;1.13;0.50;;;16.90;38.50;;;;;;5056549;28;20032;-77
2021/05/09 05:41:26;;;;;;;1.85;0.65;;;17.00;38.00;;;;;;5056352;28;20043;-77
2021/05/09 05:43:52;;;;;;;1.20;0.68;;;17.20;37.70;;;;;;5056406;28;20037;-79
2021/05/09 05:46:17;;;;;;;3.33;1.33;;;17.20;37.30;;;;;;5056686;28;20075;-78
2021/05/09 05:48:43;;;;;;;3.80;1.95;;;17.30;37.20;;;;;;5056553;28;20025;-78
2021/05/09 05:51:09;;;;;;;3.38;1.27;;;17.50;37.50;;;;;;5056332;28;20390;-78
2021/05/09 05:53:34;;;;;;;1.08;0.85;;;17.50;37.00;;;;;;5056345;28;20044;-77
2021/05/09 05:56:00;;;;;;;1.08;0.70;;;17.70;36.80;;;;;;5056274;28;20023;-77
2021/05/09 05:58:25;;;;;;;2.22;0.85;;;17.70;36.40;;;;;;5056383;28;20033;-77
2021/05/09 06:00:51;;;;;;;0.55;0.43;;;17.90;36.30;;;;;;5056351;28;20020;-77
2021/05/09 06:03:17;;;;;;;0.80;0.57;;;18.00;36.10;;;;;;5054857;28;20052;-76
2021/05/09 06:05:43;;;;;;;0.70;0.55;;;18.10;36.00;;;;;;5056172;28;20048;-76
2021/05/09 06:08:09;;;;;;;1.70;1.10;;;18.20;35.50;;;;;;5056222;28;20029;-76
2021/05/09 06:10:35;;;;;;;6.40;3.85;;;18.30;35.30;;;;;;5056010;28;20590;-75
2021/05/09 06:13:01;;;;;;;4.20;2.05;;;18.40;35.10;;;;;;5055941;28;20123;-75
2021/05/09 06:15:28;;;;;;;0.55;0.55;;;18.50;35.00;;;;;;5055921;28;20021;-77
2021/05/09 06:17:54;;;;;;;0.52;0.52;;;18.60;34.80;;;;;;5055852;28;20025;-77
2021/05/09 06:20:19;;;;;;;2.00;1.02;;;18.60;34.80;;;;;;5056026;28;20029;-77
2021/05/09 06:22:45;;;;;;;2.30;1.52;;;18.80;34.70;;;;;;5055696;28;20033;-76
2021/05/09 06:25:11;;;;;;;3.03;1.88;;;18.80;34.60;;;;;;5055667;28;20070;-75
2021/05/09 06:27:36;;;;;;;2.25;1.00;;;19.00;34.70;;;;;;5055371;28;20079;-75
2021/05/09 06:30:03;;;;;;;1.73;0.80;;;19.10;34.70;;;;;;5055687;28;20047;-77
2021/05/09 06:32:29;;;;;;;1.55;0.70;;;19.20;34.40;;;;;;5055449;28;20068;-77
2021/05/09 06:34:54;;;;;;;2.03;1.48;;;19.40;34.60;;;;;;5055736;28;20048;-78
2021/05/09 06:37:20;;;;;;;2.53;0.52;;;19.50;34.20;;;;;;5054231;28;20043;-77
2021/05/09 06:39:46;;;;;;;3.90;1.30;;;19.60;33.30;;;;;;5055505;28;20070;-77
2021/05/09 06:42:12;;;;;;;1.30;0.90;;;19.80;32.90;;;;;;5057730;28;20029;-78
2021/05/09 06:44:56;;;;;;;;;;;20.00;32.80;;;;;;5059397;27;20713;-78
2021/05/09 06:47:21;;;;;;;2.80;0.80;;;20.00;33.20;;;;;;5025768;28;19909;-77
2021/05/09 06:49:47;;;;;;;2.47;0.52;;;20.10;33.30;;;;;;5026800;28;20388;-77
2021/05/09 06:52:14;;;;;;;1.00;0.73;;;20.30;33.50;;;;;;5026868;28;20029;-77
2021/05/09 06:54:40;;;;;;;2.17;0.77;;;20.30;32.50;;;;;;5026818;28;20044;-78
2021/05/09 06:57:06;;;;;;;1.60;0.60;;;20.40;31.90;;;;;;5027036;28;20100;-78
2021/05/09 06:59:31;;;;;;;1.10;0.60;;;20.50;31.50;;;;;;5039673;28;20044;-78
2021/05/09 07:01:57;;;;;;;0.40;0.40;;;20.60;31.00;;;;;;5034600;28;20462;-76
2021/05/09 07:04:22;;;;;;;1.13;0.30;;;20.70;30.30;;;;;;5026465;28;20042;-76
2021/05/09 07:06:48;;;;;;;0.60;0.45;;;20.80;29.90;;;;;;5026588;28;20022;-77
2021/05/09 07:09:14;;;;;;;0.57;0.40;;;20.90;29.70;;;;;;5026501;28;20033;-77
2021/05/09 07:11:40;;;;;;;1.30;0.63;;;21.00;29.60;;;;;;5026491;28;20449;-77
2021/05/09 07:14:06;;;;;;;1.90;0.55;;;21.10;29.20;;;;;;5026494;28;20109;-76
2021/05/09 07:16:32;;;;;;;0.75;0.50;;;21.20;29.10;;;;;;5026414;28;20026;-78
2021/05/09 07:19:00;;;;;;;0.47;0.45;;;21.30;28.80;;;;;;5026329;28;20493;-74
2021/05/09 07:21:28;;;;;;;2.58;0.88;;;21.30;28.60;;;;;;5026284;28;20048;-76
2021/05/09 07:23:54;;;;;;;1.35;0.40;;;21.50;28.10;;;;;;5026053;28;20041;-78
2021/05/09 07:26:20;;;;;;;1.50;0.50;;;21.50;27.90;;;;;;5026362;28;20116;-77
2021/05/09 07:28:46;;;;;;;1.50;0.60;;;21.60;27.80;;;;;;5026139;28;20086;-76
2021/05/09 07:31:13;;;;;;;2.75;0.93;;;21.70;27.60;;;;;;5026324;28;20096;-77
2021/05/09 07:33:39;;;;;;;2.28;0.60;;;21.80;27.30;;;;;;5026282;28;20104;-78
2021/05/09 07:36:05;;;;;;;1.58;0.60;;;21.80;27.40;;;;;;5026221;28;20029;-78
2021/05/09 07:38:30;;;;;;;2.10;0.60;;;21.90;27.60;;;;;;5026159;28;20371;-78
2021/05/09 07:40:56;;;;;;;1.65;0.70;;;22.00;27.40;;;;;;5026133;28;20033;-78
2021/05/09 07:43:21;;;;;;;0.88;0.80;;;22.10;27.30;;;;;;5041222;27;20113;-79
2021/05/09 07:45:47;;;;;;;0.77;0.63;;;22.20;26.80;;;;;;5026152;28;20466;-79
2021/05/09 07:48:13;;;;;;;2.42;0.75;;;22.20;26.70;;;;;;5026116;28;20029;-78
2021/05/09 07:50:39;;;;;;;2.53;0.60;;;22.40;27.00;;;;;;5026413;28;20136;-76
2021/05/09 07:53:05;;;;;;;0.63;0.43;;;22.40;26.80;;;;;;5025946;28;20513;-78
2021/05/09 07:55:30;;;;;;;2.08;0.90;;;22.50;26.80;;;;;;5016746;28;20034;-78
2021/05/09 07:57:57;;;;;;;3.25;0.70;;;22.60;26.20;;;;;;5012832;28;20022;-76
2021/05/09 08:00:23;;;;;;;1.65;0.40;;;22.60;25.80;;;;;;5012715;28;20026;-76
2021/05/09 08:02:49;;;;;;;1.67;0.50;;;22.60;25.30;;;;;;5012620;28;20034;-77
2021/05/09 08:05:16;;;;;;;4.22;0.93;;;22.70;25.30;;;;;;5012352;28;20583;-75
2021/05/09 08:08:08;;;;;;;2.63;0.47;;;22.80;25.30;;;;;;5012591;28;20046;-76
2021/05/09 08:10:39;;;;;;;0.90;0.63;;;22.80;24.70;;;;;;5015064;28;20107;-76
2021/05/09 08:13:06;;;;;;;0.65;0.50;;;22.80;24.80;;;;;;5012704;28;20026;-74
2021/05/09 08:15:32;;;;;;;0.50;0.40;;;22.80;24.40;;;;;;5012560;28;20112;-76
2021/05/09 08:17:58;;;;;;;2.97;0.50;;;22.90;24.50;;;;;;5012546;28;20061;-74
2021/05/09 08:20:24;;;;;;;1.63;0.65;;;22.90;24.60;;;;;;5012424;28;20036;-80
2021/05/09 08:22:51;;;;;;;1.35;0.80;;;23.00;23.90;;;;;;5012303;28;20462;-74
2021/05/09 08:25:17;;;;;;;1.63;0.57;;;23.00;23.50;;;;;;5010953;28;20458;-74
2021/05/09 08:27:46;;;;;;;2.22;0.82;;;23.00;23.00;;;;;;5012274;28;20082;-75
2021/05/09 08:30:14;;;;;;;1.63;0.70;;;23.10;23.20;;;;;;5012290;28;20443;-75
2021/05/09 08:32:39;;;;;;;1.27;0.45;;;23.20;23.10;;;;;;5012016;28;20022;-76
2021/05/09 08:35:08;;;;;;;1.15;0.57;;;23.30;22.80;;;;;;5012223;28;20593;-75
2021/05/09 08:37:34;;;;;;;0.93;0.50;;;23.30;22.50;;;;;;5010805;28;20132;-75
2021/05/09 08:40:00;;;;;;;0.80;0.50;;;23.40;22.40;;;;;;5010938;28;20022;-75
2021/05/09 08:42:26;;;;;;;1.85;0.50;;;23.40;22.50;;;;;;5017070;28;20093;-75
2021/05/09 08:44:55;;;;;;;0.80;0.43;;;23.50;22.00;;;;;;5012124;28;20166;-75
2021/05/09 08:47:22;;;;;;;0.30;0.30;;;23.50;21.40;;;;;;5011981;28;20025;-75
2021/05/09 08:49:51;;;;;;;1.10;0.40;;;23.60;20.60;;;;;;5010914;28;20456;-74
2021/05/09 08:52:18;;;;;;;1.40;0.55;;;23.70;21.50;;;;;;5011917;28;20122;-74
2021/05/09 08:54:44;;;;;;;0.85;0.35;;;23.70;21.50;;;;;;5011756;28;20022;-77
2021/05/09 08:57:10;;;;;;;1.17;0.70;;;23.80;21.00;;;;;;5011810;28;20026;-76
2021/05/09 08:59:37;;;;;;;2.00;0.70;;;23.80;21.00;;;;;;5011678;28;20022;-77
2021/05/09 09:02:03;;;;;;;1.70;0.40;;;23.90;21.30;;;;;;5011792;28;20101;-78
2021/05/09 09:04:42;;;;;;;0.85;0.50;;;24.00;21.50;;;;;;5011731;28;20113;-74
2021/05/09 09:07:11;;;;;;;0.95;0.63;;;24.20;21.60;;;;;;5010602;28;20018;-74
2021/05/09 09:09:41;;;;;;;0.70;0.40;;;24.20;20.60;;;;;;5011438;28;20054;-75
2021/05/09 09:12:07;;;;;;;1.45;0.50;;;24.20;20.70;;;;;;5011509;28;20018;-75
2021/05/09 09:14:33;;;;;;;1.42;0.45;;;24.20;20.50;;;;;;5011386;28;20022;-74
2021/05/09 09:17:15;;;;;;;0.95;0.40;;;24.20;20.40;;;;;;5011415;28;20492;-75
2021/05/09 09:20:03;;;;;;;3.60;0.43;;;24.20;20.10;;;;;;5011353;28;20026;-74
2021/05/09 09:22:52;;;;;;;1.55;0.52;;;24.30;20.00;;;;;;5011281;28;20097;-76
2021/05/09 09:25:19;;;;;;;2.55;0.40;;;24.40;19.70;;;;;;5025652;28;20479;-76
2021/05/09 09:27:47;;;;;;;1.75;0.50;;;24.40;19.90;;;;;;5011434;28;20026;-76
2021/05/09 09:30:14;;;;;;;2.05;0.50;;;24.50;20.60;;;;;;5011325;28;20026;-76
2021/05/09 09:32:40;;;;;;;1.25;0.68;;;24.60;20.40;;;;;;5011138;28;20036;-75
2021/05/09 09:35:28;;;;;;;1.20;0.50;;;24.80;20.10;;;;;;5011275;28;20018;-74
2021/05/09 09:37:54;;;;;;;1.38;0.52;;;24.70;20.20;;;;;;5011152;28;20048;-74
2021/05/09 09:40:19;;;;;;;1.52;0.60;;;24.70;19.70;;;;;;5011073;28;20034;-74
2021/05/09 09:42:46;;;;;;;0.80;0.47;;;24.80;20.00;;;;;;5010793;28;20052;-75
2021/05/09 09:45:16;;;;;;;1.70;0.50;;;24.90;19.90;;;;;;5011011;28;20029;-74
2021/05/09 09:48:01;;;;;;;0.70;0.45;;;25.00;19.20;;;;;;5010944;28;20026;-76
2021/05/09 09:50:39;;;;;;;1.80;0.32;;;25.00;19.00;;;;;;5011011;28;20022;-75
2021/05/09 09:53:40;;;;;;;3.33;0.77;;;25.10;19.00;;;;;;5011771;28;20067;-73
2021/05/09 09:56:08;;;;;;;2.03;0.50;;;25.30;19.00;;;;;;5008259;28;20061;-74
2021/05/09 09:58:57;;;;;;;0.98;0.40;;;25.40;18.50;;;;;;5010779;28;20197;-73
2021/05/09 10:01:30;;;;;;;1.85;0.40;;;25.50;18.40;;;;;;5009966;28;20382;-75
2021/05/09 10:03:58;;;;;;;3.35;0.70;;;25.60;18.30;;;;;;5009617;28;20127;-75
2021/05/09 10:06:25;;;;;;;0.98;0.55;;;25.70;18.70;;;;;;5010748;28;20026;-75
2021/05/09 10:08:51;;;;;;;1.10;0.47;;;25.80;18.30;;;;;;5010773;28;20030;-74
2021/05/09 10:11:18;;;;;;;1.38;0.50;;;25.90;18.40;;;;;;5009587;28;20022;-75
2021/05/09 10:13:45;;;;;;;2.08;0.50;;;25.90;18.00;;;;;;5010785;28;20163;-74
2021/05/09 10:16:12;;;;;;;1.33;0.60;;;26.00;18.20;;;;;;5010750;28;20067;-75
2021/05/09 10:18:40;;;;;;;1.25;0.35;;;26.00;18.40;;;;;;5010462;28;20022;-76
2021/05/09 10:21:06;;;;;;;1.05;0.50;;;26.00;18.20;;;;;;5010609;28;20029;-76
2021/05/09 10:23:32;;;;;;;1.70;0.60;;;26.10;18.10;;;;;;5010478;28;20030;-76
2021/05/09 10:26:00;;;;;;;1.85;0.47;;;26.30;18.00;;;;;;5009281;28;20030;-75
2021/05/09 10:28:36;;;;;;;1.17;0.60;;;26.50;17.70;;;;;;5011035;28;20026;-74
2021/05/09 10:31:01;;;;;;;4.28;0.60;;;26.60;17.80;;;;;;5009161;28;20025;-72
2021/05/09 10:33:42;;;;;;;2.17;0.50;;;26.50;18.00;;;;;;5008995;28;20075;-73
2021/05/09 10:36:07;;;;;;;0.57;0.40;;;26.50;17.80;;;;;;5009190;28;20022;-72
2021/05/09 10:39:11;;;;;;;0.93;0.57;;;26.60;17.80;;;;;;5010398;28;20106;-74
2021/05/09 10:41:53;;;;;;;1.17;0.70;;;26.80;17.80;;;;;;5009030;28;20029;-72
2021/05/09 10:44:49;;;;;;;1.73;0.50;;;26.90;17.80;;;;;;5010272;28;20595;-75
2021/05/09 10:47:19;;;;;;;3.42;0.47;;;27.00;17.90;;;;;;5022655;28;20061;-73
2021/05/09 10:50:21;;;;;;;1.15;0.60;;;27.20;17.30;;;;;;5010340;28;20022;-74
2021/05/09 10:52:49;;;;;;;1.10;0.50;;;27.10;17.40;;;;;;5010128;28;20060;-75
2021/05/09 10:55:36;;;;;;;1.13;0.30;;;27.30;17.30;;;;;;5010525;28;20478;-74
2021/05/09 10:58:03;;;;;;;0.60;0.30;;;27.20;17.30;;;;;;5010021;28;20075;-77
2021/05/09 11:00:29;;;;;;;1.38;0.60;;;27.30;17.10;;;;;;5009893;28;20076;-77
2021/05/09 11:02:54;;;;;;;0.57;0.50;;;27.30;17.30;;;;;;5009929;28;20386;-77
2021/05/09 11:05:40;;;;;;;3.03;0.45;;;27.10;17.10;;;;;;5009976;28;20022;-76
2021/05/09 11:08:05;;;;;;;;;;;27.20;17.10;;;;;;5010369;28;20026;-73
2021/05/09 11:10:38;;;;;;;0.82;0.47;;;27.00;16.90;;;;;;5009945;28;20016;-73
2021/05/09 11:13:08;;;;;;;0.98;0.50;;;27.00;17.20;;;;;;5010349;28;20063;-73
2021/05/09 11:15:34;;;;;;;0.50;0.40;;;27.00;17.30;;;;;;5009860;28;20030;-73
2021/05/09 11:18:00;;;;;;;1.05;0.50;;;27.00;17.70;;;;;;5009470;28;20482;-76
2021/05/09 11:20:26;;;;;;;1.25;1.15;;;27.10;17.70;;;;;;5008753;28;20027;-76
2021/05/09 11:22:58;;;;;;;9.75;6.60;;;27.40;17.80;;;;;;5011227;28;20026;-80
2021/05/09 11:25:33;;;;;;;1.75;0.70;;;27.70;17.40;;;;;;5011433;28;20483;-79
2021/05/09 11:27:59;;;;;;;3.65;0.63;;;27.80;16.80;;;;;;5010994;28;20026;-79
2021/05/09 11:30:37;;;;;;;0.75;0.35;;;27.60;16.90;;;;;;5012478;28;20036;-80
2021/05/09 11:33:03;;;;;;;0.80;0.45;;;27.70;16.80;;;;;;5013283;28;20394;-81
2021/05/09 11:35:39;;;;;;;0.77;0.50;;;27.90;16.50;;;;;;5012689;28;20023;-78
2021/05/09 11:38:14;;;;;;;0.57;0.40;;;28.20;16.70;;;;;;5012902;28;20033;-77
2021/05/09 11:40:41;;;;;;;3.47;0.60;;;28.60;16.80;;;;;;5012718;28;20026;-79
2021/05/09 11:43:14;;;;;;;0.75;0.35;;;28.60;16.80;;;;;;5012813;28;20046;-78
2021/05/09 11:45:40;;;;;;;0.93;0.55;;;28.60;16.60;;;;;;5013039;28;20159;-78
2021/05/09 11:48:06;;;;;;;1.42;0.38;;;28.50;16.90;;;;;;5013036;28;20025;-81
2021/05/09 11:50:31;;;;;;;0.93;0.63;;;28.60;16.50;;;;;;5012953;28;20029;-77
2021/05/09 11:52:57;;;;;;;2.17;0.57;;;28.60;16.50;;;;;;5012745;28;20030;-77
2021/05/09 11:55:22;;;;;;;1.70;0.60;;;28.60;16.30;;;;;;5011346;28;20043;-72
2021/05/09 11:57:48;;;;;;;2.97;1.30;;;28.60;16.10;;;;;;5012351;28;20018;-75
2021/05/09 12:00:18;;;;;;;0.88;0.60;;;29.00;16.30;;;;;;5012376;28;20037;-74
2021/05/09 12:02:48;;;;;;;1.48;0.43;;;29.10;16.20;;;;;;5010869;28;20394;-74
2021/05/09 12:05:18;;;;;;;0.52;0.50;;;29.30;16.00;;;;;;5011343;28;20090;-74
2021/05/09 12:07:45;;;;;;;1.75;0.98;;;28.80;15.70;;;;;;5012548;28;20048;-78
2021/05/09 12:10:25;;;;;;;0.50;0.35;;;28.70;16.20;;;;;;5012515;28;20071;-77
2021/05/09 12:12:55;;;;;;;1.15;0.80;;;28.80;15.60;;;;;;5012551;28;20023;-77
2021/05/09 12:15:20;;;;;;;3.42;0.77;;;28.50;16.50;;;;;;5012842;28;20036;-76
2021/05/09 12:17:53;;;;;;;1.58;0.60;;;28.50;15.80;;;;;;5012344;28;20018;-76
2021/05/09 12:20:40;;;;;;;3.08;0.60;;;28.50;15.70;;;;;;5012434;28;20026;-76
2021/05/09 12:23:18;;;;;;;0.73;0.40;;;28.70;15.50;;;;;;5012243;28;20057;-76
2021/05/09 12:25:45;;;;;;;2.22;0.80;;;28.90;15.70;;;;;;5012192;28;20113;-75
2021/05/09 12:28:18;;;;;;;1.05;0.50;;;28.90;15.60;;;;;;5012026;28;20026;-75
2021/05/09 12:30:49;;;;;;;1.60;0.70;;;28.70;15.30;;;;;;5012139;28;20374;-76
2021/05/09 12:33:28;;;;;;;0.75;0.50;;;28.90;15.10;;;;;;5012235;28;20036;-76
2021/05/09 12:35:55;;;;;;;1.30;0.50;;;29.10;15.20;;;;;;5012196;28;20021;-76
2021/05/09 12:38:33;;;;;;;0.82;0.38;;;29.40;15.00;;;;;;5012170;28;20022;-76
2021/05/09 12:41:02;;;;;;;0.60;0.50;;;29.80;15.10;;;;;;5012084;28;20163;-76
2021/05/09 12:43:40;;;;;;;1.90;0.55;;;30.20;15.40;;;;;;5011623;28;20513;-77
2021/05/09 12:46:06;;;;;;;0.57;0.57;;;30.60;14.90;;;;;;5012000;28;20022;-76
2021/05/09 12:48:32;;;;;;;4.38;0.40;;;30.60;14.60;;;;;;5011886;28;20030;-75
2021/05/09 12:51:03;;;;;;;0.85;0.45;;;30.10;14.90;;;;;;5011906;28;20037;-75